Time;durP1;ratioP1;P1;durP2;ratioP2;P2;SDS_P1;SDS_P2;PMS_P1;PMS_P2;Temp;Humidity;BMP_temperature;BMP_pressure;BME280_temperature;BME280_humidity;BME280_pressure;Samples;Min_cycle;Max_cycle;Signal;HPM_P1;HPM_P2
2021/11/25 00:24:41;;;;;;;1011.10;920.27;;;0.50;99.90;;;;;;6202268;23;20440;-84
2021/11/25 02:39:28;;;;;;;924.63;835.87;;;1.20;99.90;;;;;;6062572;23;20414;-89
2021/11/25 02:42:32;;;;;;;909.93;821.67;;;1.20;99.90;;;;;;6232777;23;20436;-88
2021/11/25 02:45:24;;;;;;;905.20;816.90;;;1.30;99.90;;;;;;6237197;23;20941;-89
2021/11/25 02:48:50;;;;;;;901.10;813.10;;;1.30;99.90;;;;;;6240292;23;20763;-89
2021/11/25 02:51:30;;;;;;;893.03;804.43;;;1.30;99.90;;;;;;6219276;22;20444;-88
2021/11/25 04:17:21;;;;;;;852.07;772.87;;;1.60;99.90;;;;;;6237027;23;20418;-91
2021/11/25 04:20:35;;;;;;;860.10;780.70;;;1.60;99.90;;;;;;6200214;23;20413;-93
2021/11/25 04:30:22;;;;;;;;;;;;;;;;;;;;;
2021/11/25 05:02:42;;;;;;;863.10;784.07;;;1.80;99.90;;;;;;6117413;23;20415;-96
2021/11/25 05:05:59;;;;;;;854.67;776.17;;;1.80;99.90;;;;;;6146272;23;20473;-91
2021/11/25 05:09:11;;;;;;;;;;;;;;;;;;;;;
2021/11/25 05:28:12;;;;;;;837.27;762.20;;;1.90;99.90;;;;;;6236871;23;20789;-89
2021/11/25 05:31:32;;;;;;;861.00;783.47;;;1.70;99.90;;;;;;6236088;23;20911;-87
2021/11/25 05:34:49;;;;;;;856.87;779.57;;;1.80;99.90;;;;;;6085903;23;20412;-87
2021/11/25 05:44:39;;;;;;;863.07;785.30;;;1.90;99.90;;;;;;6133687;23;20485;-92
2021/11/25 05:47:36;;;;;;;;;;;;;;;;;;;;;
2021/11/25 05:51:10;;;;;;;;;;;;;;;;;;;;;
2021/11/25 05:57:56;;;;;;;828.97;754.07;;;2.00;99.90;;;;;;5819654;24;20426;-89
2021/11/25 06:15:15;;;;;;;835.17;766.30;;;1.70;99.90;;;;;;6215326;23;20447;-91
2021/11/25 06:27:30;;;;;;;846.73;772.93;;;1.10;99.90;;;;;;6205517;23;20883;-87
2021/11/25 06:40:45;;;;;;;881.73;804.00;;;0.50;99.90;;;;;;5957499;23;20477;-95
2021/11/25 07:11:24;;;;;;;908.43;831.83;;;0.00;99.90;;;;;;5898547;24;20469;-89
2021/11/25 07:17:03;;;;;;;935.40;857.83;;;-0.30;99.90;;;;;;5924763;24;20482;-89
2021/11/25 07:31:14;;;;;;;930.20;846.80;;;-0.10;99.90;;;;;;6283779;22;20409;-89
2021/11/25 07:33:47;;;;;;;933.00;849.10;;;-0.10;99.90;;;;;;6287524;22;20403;-91
2021/11/25 07:36:25;;;;;;;959.00;875.35;;;-0.10;99.90;;;;;;6285739;22;20472;-85
2021/11/25 07:41:41;;;;;;;970.63;882.33;;;-0.10;99.90;;;;;;6273093;22;20406;-86
2021/11/25 07:44:27;;;;;;;979.20;891.67;;;0.00;99.90;;;;;;6287004;22;20523;-84
2021/11/25 07:46:58;;;;;;;977.80;893.47;;;0.00;99.90;;;;;;6287068;22;20850;-90
2021/11/25 07:49:26;;;;;;;978.95;896.35;;;-0.10;99.90;;;;;;6287498;22;20410;-86
2021/11/25 07:52:00;;;;;;;989.67;903.60;;;-0.20;99.90;;;;;;6276494;22;20155;-85
2021/11/25 08:04:59;;;;;;;;;;;;;;;;;;;;;
2021/11/25 08:11:24;;;;;;;1000.10;913.43;;;-0.40;99.90;;;;;;6036235;23;20774;-85
2021/11/25 08:14:29;;;;;;;;;;;;;;;;;;;;;
2021/11/25 08:17:19;;;;;;;1003.03;912.13;;;-0.10;99.90;;;;;;6091773;23;20407;-88
2021/11/25 08:20:03;;;;;;;1004.73;915.00;;;0.00;99.90;;;;;;6104530;23;20442;-84
2021/11/25 08:22:39;;;;;;;1005.97;915.63;;;0.10;99.90;;;;;;6129825;23;20522;-84
2021/11/25 08:26:11;;;;;;;;;;;;;;;;;;;;;
2021/11/25 08:28:55;;;;;;;;;;;;;;;;;;;;;
2021/11/25 08:32:14;;;;;;;1001.40;909.33;;;0.20;99.90;;;;;;6212428;23;20401;-87
2021/11/25 08:35:24;;;;;;;990.43;900.33;;;0.40;99.90;;;;;;6036369;23;20460;-88
2021/11/25 08:38:39;;;;;;;;;;;;;;;;;;;;;
2021/11/25 08:41:14;;;;;;;981.10;891.50;;;0.30;99.90;;;;;;6149777;23;20415;-84
2021/11/25 08:47:17;;;;;;;998.23;908.67;;;0.50;99.90;;;;;;6177191;23;20475;-86
2021/11/25 08:50:00;;;;;;;992.30;901.50;;;0.50;99.90;;;;;;6217523;23;20400;-87
2021/11/25 08:52:42;;;;;;;990.60;898.73;;;0.60;99.90;;;;;;6211340;23;20416;-85
2021/11/25 08:55:34;;;;;;;;;;;;;;;;;;;;;
2021/11/25 08:58:20;;;;;;;947.87;858.00;;;1.00;99.90;;;;;;6215761;23;20416;-86
2021/11/25 09:00:50;;;;;;;928.53;838.43;;;1.20;99.90;;;;;;6213976;23;20407;-87
2021/11/25 09:03:30;;;;;;;888.53;800.23;;;1.30;99.90;;;;;;6226445;23;20419;-89
2021/11/25 09:06:11;;;;;;;854.57;769.40;;;1.50;99.90;;;;;;6222656;23;20993;-86
2021/11/25 09:09:00;;;;;;;853.20;767.70;;;1.60;99.90;;;;;;6225249;23;20408;-84
2021/11/25 09:22:01;;;;;;;;;;;;;;;;;;;;;
2021/11/25 09:27:45;;;;;;;835.73;761.53;;;3.40;99.90;;;;;;6197023;23;20440;-84
2021/11/25 09:30:24;;;;;;;830.67;758.30;;;3.50;99.90;;;;;;6215480;23;20407;-83
2021/11/25 09:32:57;;;;;;;830.07;760.93;;;3.40;99.90;;;;;;6225920;23;20411;-85
2021/11/25 09:35:27;;;;;;;822.33;757.37;;;3.60;99.90;;;;;;6226125;23;20412;-86
2021/11/25 09:38:08;;;;;;;808.23;745.80;;;3.70;99.90;;;;;;6225235;23;20408;-86
2021/11/25 09:40:41;;;;;;;812.53;751.83;;;3.90;99.90;;;;;;6216586;23;20410;-84
2021/11/25 09:43:26;;;;;;;800.23;743.17;;;3.80;99.90;;;;;;6216573;23;20397;-84
2021/11/25 09:49:20;;;;;;;805.00;747.23;;;3.90;99.90;;;;;;6228159;23;20461;-87
2021/11/25 09:55:11;;;;;;;753.30;703.43;;;3.90;99.90;;;;;;6243584;23;20490;-87
2021/11/25 09:58:27;;;;;;;776.57;725.90;;;3.80;99.90;;;;;;6259630;23;20403;-87
2021/11/25 10:01:25;;;;;;;754.97;706.13;;;3.80;99.90;;;;;;6247664;23;20422;-88
2021/11/25 10:04:10;;;;;;;757.37;711.07;;;3.80;99.90;;;;;;6256260;23;20408;-88
2021/11/25 10:07:23;;;;;;;;;;;;;;;;;;;;;
2021/11/25 10:10:16;;;;;;;738.17;695.17;;;4.10;99.90;;;;;;6251292;23;20407;-87
2021/11/25 10:13:26;;;;;;;636.47;602.97;;;4.10;99.90;;;;;;6266091;23;20407;-88
2021/11/25 10:16:25;;;;;;;;;;;;;;;;;;;;;
2021/11/25 10:19:11;;;;;;;516.10;490.23;;;4.40;99.90;;;;;;6264559;23;20448;-86
2021/11/25 10:22:09;;;;;;;;;;;;;;;;;;;;;
2021/11/25 10:25:07;;;;;;;438.67;418.47;;;4.30;99.90;;;;;;6264800;23;20913;-84
2021/11/25 10:28:18;;;;;;;;;;;;;;;;;;;;;
2021/11/25 10:31:15;;;;;;;406.60;387.50;;;4.50;99.90;;;;;;6263211;23;20399;-85
2021/11/25 10:34:53;;;;;;;;;;;;;;;;;;;;;
2021/11/25 10:40:42;;;;;;;290.53;277.00;;;4.70;99.90;;;;;;6117626;23;20462;-87
2021/11/25 10:43:21;;;;;;;228.07;216.87;;;4.60;99.20;;;;;;6257817;23;20400;-87
2021/11/25 10:45:54;;;;;;;213.27;202.47;;;4.60;99.20;;;;;;6249272;23;20461;-87
2021/11/25 10:48:29;;;;;;;197.23;186.70;;;4.70;98.70;;;;;;6268366;23;20420;-85
2021/11/25 10:50:58;;;;;;;295.57;282.27;;;4.50;98.40;;;;;;6264613;23;20164;-86
2021/11/25 10:53:29;;;;;;;120.55;112.10;;;4.60;98.50;;;;;;6252904;23;20468;-87
2021/11/25 10:56:08;;;;;;;110.80;102.57;;;4.80;98.30;;;;;;6261719;23;20535;-83
2021/11/25 11:01:43;;;;;;;152.97;143.77;;;4.80;98.30;;;;;;5091543;27;20541;-87
2021/11/25 11:04:28;;;;;;;;;;;;;;;;;;;;;
2021/11/25 11:07:10;;;;;;;182.47;171.80;;;4.60;98.50;;;;;;5091589;28;20445;-86
2021/11/25 13:37:23;;;;;;;52.07;43.83;;;5.20;89.40;;;;;;4888305;29;20508;-86
2021/11/25 13:40:05;;;;;;;85.97;77.37;;;5.00;91.00;;;;;;4899690;29;20479;-86
2021/11/25 13:42:52;;;;;;;140.10;129.40;;;5.00;93.50;;;;;;4899836;29;20963;-85
2021/11/25 13:45:31;;;;;;;227.23;214.43;;;4.80;94.50;;;;;;4899580;29;20498;-87
2021/11/25 13:47:58;;;;;;;322.83;304.70;;;4.80;98.10;;;;;;4900507;29;20459;-86
2021/11/25 13:50:29;;;;;;;383.37;363.03;;;4.70;98.30;;;;;;4901014;29;20483;-89
2021/11/25 13:53:04;;;;;;;359.90;341.30;;;4.70;99.70;;;;;;4898719;29;20490;-85
2021/11/25 13:55:35;;;;;;;392.23;372.33;;;4.60;99.90;;;;;;4900715;29;20553;-88
2021/11/25 13:58:04;;;;;;;492.80;466.60;;;4.60;99.90;;;;;;4901278;29;20518;-83
2021/11/25 14:00:34;;;;;;;479.87;454.37;;;4.50;99.90;;;;;;4908601;29;20486;-86
2021/11/25 14:03:07;;;;;;;508.90;480.63;;;4.70;99.90;;;;;;4909357;29;20462;-89
2021/11/25 14:05:54;;;;;;;521.97;493.80;;;4.50;99.90;;;;;;4905794;29;20455;-88
2021/11/25 14:08:34;;;;;;;576.37;543.97;;;4.60;99.90;;;;;;4907376;29;20559;-86
2021/11/25 14:11:10;;;;;;;641.83;604.80;;;4.50;99.90;;;;;;4907556;29;20460;-88
2021/11/25 14:13:58;;;;;;;647.83;610.03;;;4.60;99.90;;;;;;4909418;29;20462;-89
2021/11/25 14:16:28;;;;;;;683.33;643.23;;;4.50;99.90;;;;;;4904325;29;20958;-89
2021/11/25 14:18:56;;;;;;;693.53;651.87;;;4.60;99.90;;;;;;4903436;29;20996;-90
2021/11/25 14:21:56;;;;;;;705.07;661.30;;;4.60;99.90;;;;;;4903836;29;20486;-89
2021/11/25 14:24:40;;;;;;;758.63;710.60;;;4.70;99.90;;;;;;4906902;29;20463;-91
2021/11/25 14:30:16;;;;;;;744.43;698.73;;;4.70;99.90;;;;;;4900725;29;20827;-91
2021/11/25 14:32:50;;;;;;;710.17;667.57;;;4.80;99.90;;;;;;4903845;29;20482;-88
2021/11/25 14:35:55;;;;;;;664.87;625.57;;;4.80;99.90;;;;;;4902030;29;20474;-89
2021/11/25 14:38:30;;;;;;;625.63;589.73;;;4.80;99.90;;;;;;4898882;29;20529;-89
2021/11/25 14:41:04;;;;;;;628.07;592.73;;;4.70;99.90;;;;;;4903157;29;20494;-86
2021/11/25 14:43:37;;;;;;;655.20;618.50;;;4.70;99.90;;;;;;4900737;29;20522;-89
2021/11/25 14:46:17;;;;;;;596.80;564.70;;;4.90;99.90;;;;;;4897949;29;20534;-89
2021/11/25 14:48:44;;;;;;;534.53;505.57;;;4.70;99.90;;;;;;4897854;29;20490;-83
2021/11/25 14:51:12;;;;;;;562.83;531.53;;;4.70;99.90;;;;;;4896682;29;20479;-88
2021/11/25 14:53:42;;;;;;;562.30;532.57;;;4.70;99.90;;;;;;4898202;29;20467;-87
2021/11/25 14:56:17;;;;;;;580.10;549.80;;;4.70;99.90;;;;;;4899597;29;20462;-87
2021/11/25 14:58:54;;;;;;;525.67;498.13;;;4.60;99.90;;;;;;4899713;29;20843;-89
2021/11/25 15:01:25;;;;;;;564.10;534.33;;;4.60;99.90;;;;;;4900070;29;20490;-89
2021/11/25 15:03:59;;;;;;;591.23;559.57;;;4.50;99.90;;;;;;4898518;29;20534;-87
2021/11/25 15:06:38;;;;;;;605.37;572.93;;;4.60;99.90;;;;;;4897979;29;20467;-87
2021/11/25 15:09:07;;;;;;;661.07;623.87;;;4.50;99.90;;;;;;4898244;29;20466;-88
2021/11/25 15:11:37;;;;;;;654.97;618.73;;;4.50;99.90;;;;;;4898553;29;20474;-86
2021/11/25 15:14:04;;;;;;;679.90;641.97;;;4.60;99.90;;;;;;4897864;29;20551;-86
2021/11/25 15:16:33;;;;;;;716.73;673.67;;;4.50;99.90;;;;;;4897835;29;20494;-86
2021/11/25 15:19:00;;;;;;;726.03;682.47;;;4.60;99.90;;;;;;4898038;29;20454;-89
2021/11/25 15:21:29;;;;;;;736.13;692.37;;;4.60;99.90;;;;;;4896722;29;20985;-86
2021/11/25 15:23:56;;;;;;;749.00;703.20;;;4.50;99.90;;;;;;4897555;29;20466;-87
2021/11/25 15:26:23;;;;;;;731.90;687.67;;;4.50;99.90;;;;;;4897578;29;20558;-89
2021/11/25 15:28:52;;;;;;;712.93;671.53;;;4.50;99.90;;;;;;4897481;29;20489;-87
2021/11/25 15:31:19;;;;;;;713.50;671.90;;;4.50;99.90;;;;;;4897763;29;20534;-88
2021/11/25 15:33:47;;;;;;;731.43;687.63;;;4.50;99.90;;;;;;4897154;29;20487;-89
2021/11/25 15:36:22;;;;;;;704.33;662.33;;;4.50;99.90;;;;;;4896578;29;20509;-88
2021/11/25 15:38:49;;;;;;;725.40;681.90;;;4.40;99.90;;;;;;4897350;29;20469;-87
2021/11/25 15:41:29;;;;;;;744.37;699.53;;;4.50;99.90;;;;;;4897218;29;20550;-89
2021/11/25 16:20:53;;;;;;;798.07;743.70;;;4.30;99.90;;;;;;5677117;23;20507;-84
2021/11/25 16:23:23;;;;;;;802.80;748.73;;;4.30;99.90;;;;;;4937346;29;20477;-83
2021/11/25 16:25:59;;;;;;;794.03;740.53;;;4.30;99.90;;;;;;4939679;28;20559;-84
2021/11/25 16:28:28;;;;;;;792.43;739.63;;;4.30;99.90;;;;;;4940418;29;20897;-84
2021/11/25 16:30:57;;;;;;;795.90;741.83;;;4.30;99.90;;;;;;4939016;29;20560;-84
2021/11/25 16:33:32;;;;;;;803.83;750.70;;;4.10;99.90;;;;;;4940206;29;20870;-83
2021/11/25 16:36:01;;;;;;;812.87;758.20;;;4.00;99.90;;;;;;4939627;29;20456;-84
2021/11/25 16:38:30;;;;;;;824.13;767.83;;;4.00;99.90;;;;;;4940062;29;20817;-84
2021/11/25 16:41:00;;;;;;;841.63;782.87;;;3.90;99.90;;;;;;4938655;29;20947;-84
2021/11/25 16:43:37;;;;;;;833.63;774.07;;;3.90;99.90;;;;;;4938608;29;20457;-83
2021/11/25 16:46:04;;;;;;;840.93;782.10;;;3.80;99.90;;;;;;4942486;29;20466;-79
2021/11/25 16:48:31;;;;;;;855.03;794.67;;;3.80;99.90;;;;;;4938490;29;20457;-79
2021/11/25 16:51:06;;;;;;;864.17;802.40;;;3.70;99.90;;;;;;4937776;29;20556;-78
2021/11/25 16:54:01;;;;;;;;;;;;;;;;;;;;;
2021/11/25 16:56:29;;;;;;;874.33;808.03;;;3.70;99.90;;;;;;4932298;29;20528;-78
2021/11/25 16:58:56;;;;;;;873.33;803.83;;;3.50;99.90;;;;;;4936831;29;20460;-78
2021/11/25 17:01:28;;;;;;;874.37;804.33;;;3.50;99.90;;;;;;4937388;29;20489;-78
2021/11/25 17:04:02;;;;;;;874.17;802.47;;;3.40;99.90;;;;;;4937362;29;20468;-78
2021/11/25 17:06:30;;;;;;;869.10;796.13;;;3.40;99.90;;;;;;4937494;29;20445;-79
2021/11/25 17:08:57;;;;;;;876.37;802.97;;;3.40;99.90;;;;;;4937169;29;21119;-79
2021/11/25 17:11:34;;;;;;;870.63;796.73;;;3.30;99.90;;;;;;4936848;29;20477;-78
2021/11/25 17:14:03;;;;;;;885.90;809.00;;;3.30;99.90;;;;;;4937336;29;20467;-79
2021/11/25 17:16:38;;;;;;;882.47;806.47;;;3.30;99.90;;;;;;4937208;29;20969;-78
2021/11/25 17:19:05;;;;;;;893.90;815.33;;;3.10;99.90;;;;;;4937035;29;20456;-78
2021/11/25 17:21:33;;;;;;;903.83;820.47;;;3.10;99.90;;;;;;4936732;29;20480;-78
2021/11/25 17:24:00;;;;;;;906.57;824.37;;;3.10;99.90;;;;;;4937218;29;20464;-79
2021/11/25 17:26:28;;;;;;;914.17;831.80;;;3.10;99.90;;;;;;4940370;29;20819;-80
2021/11/25 17:28:55;;;;;;;918.30;834.83;;;3.10;99.90;;;;;;4941644;29;20555;-79
2021/11/25 17:31:25;;;;;;;931.77;847.50;;;3.10;99.90;;;;;;4940425;29;20472;-83
2021/11/25 17:33:53;;;;;;;908.77;826.03;;;3.10;99.90;;;;;;4942432;29;20846;-83
2021/11/25 17:36:21;;;;;;;925.33;842.77;;;3.30;99.90;;;;;;4943515;29;20461;-84
2021/11/25 17:38:50;;;;;;;929.43;844.00;;;3.20;99.90;;;;;;4943155;29;20461;-84
2021/11/25 17:41:20;;;;;;;924.97;838.23;;;3.20;99.90;;;;;;4940514;29;20492;-83
2021/11/25 17:43:47;;;;;;;932.87;846.37;;;3.40;99.90;;;;;;4939507;29;20484;-83
2021/11/25 17:46:15;;;;;;;937.40;850.33;;;3.20;99.90;;;;;;4938900;29;20453;-83
2021/11/25 17:48:42;;;;;;;938.30;851.33;;;3.20;99.90;;;;;;4938597;29;20460;-83
2021/11/25 17:51:10;;;;;;;933.50;848.70;;;3.10;99.90;;;;;;4937521;29;20996;-83
2021/11/25 17:53:37;;;;;;;950.50;861.53;;;3.10;99.90;;;;;;4938175;29;20469;-83
2021/11/25 17:56:05;;;;;;;957.77;867.20;;;3.20;99.90;;;;;;4939001;29;20484;-84
2021/11/25 17:58:32;;;;;;;952.07;861.63;;;3.10;99.90;;;;;;4937094;29;20456;-82
2021/11/25 18:00:59;;;;;;;1011.53;899.37;;;3.10;99.90;;;;;;4936383;29;20495;-83
2021/11/25 18:03:26;;;;;;;1008.17;899.33;;;3.00;99.90;;;;;;4936380;29;20480;-83
2021/11/25 18:05:53;;;;;;;981.73;883.50;;;3.00;99.90;;;;;;4936484;29;20461;-83
2021/11/25 18:08:20;;;;;;;970.47;877.43;;;3.20;99.90;;;;;;4936237;29;20537;-83
2021/11/25 18:10:47;;;;;;;919.30;837.23;;;3.10;99.90;;;;;;4936041;29;20493;-83
2021/11/25 18:13:17;;;;;;;938.17;848.60;;;3.40;99.90;;;;;;4937972;29;20880;-83
2021/11/25 18:15:44;;;;;;;961.87;866.70;;;3.60;99.90;;;;;;4938422;29;20445;-82
2021/11/25 18:18:11;;;;;;;968.17;874.67;;;3.80;99.90;;;;;;4938297;29;20461;-83
2021/11/25 18:20:39;;;;;;;969.13;874.27;;;3.90;99.90;;;;;;4937477;29;20483;-82
2021/11/25 18:23:06;;;;;;;981.17;886.40;;;4.00;99.90;;;;;;4936344;29;20826;-82
2021/11/25 18:25:33;;;;;;;990.13;897.47;;;4.10;99.90;;;;;;4935855;29;20465;-83
2021/11/25 18:28:02;;;;;;;1007.00;905.30;;;4.10;99.90;;;;;;4936001;29;20487;-82
2021/11/25 18:30:30;;;;;;;1016.73;917.47;;;4.20;99.90;;;;;;4936247;29;20946;-82
2021/11/25 18:32:57;;;;;;;1026.57;924.90;;;4.20;99.90;;;;;;4936297;29;20449;-82
2021/11/25 18:35:24;;;;;;;1039.70;938.60;;;4.30;99.90;;;;;;4936780;29;20460;-82
2021/11/25 18:37:51;;;;;;;1042.17;939.50;;;4.30;99.90;;;;;;4936686;29;20458;-83
2021/11/25 18:40:20;;;;;;;1039.27;934.57;;;4.40;99.90;;;;;;4935790;29;20556;-82
2021/11/25 18:42:47;;;;;;;1055.10;949.50;;;4.40;99.90;;;;;;4936524;29;20481;-82
2021/11/25 18:45:14;;;;;;;1069.70;958.97;;;4.40;99.90;;;;;;4936807;29;20461;-82
2021/11/25 18:47:43;;;;;;;1058.80;949.33;;;4.40;99.90;;;;;;4936993;29;20483;-82
2021/11/25 18:50:11;;;;;;;1061.10;955.93;;;4.40;99.90;;;;;;4936633;29;20461;-82
2021/11/25 18:52:38;;;;;;;1053.23;952.57;;;4.50;99.90;;;;;;4936553;29;20453;-82
2021/11/25 18:55:08;;;;;;;1045.43;950.83;;;4.40;99.90;;;;;;4936225;29;20953;-82
2021/11/25 18:57:35;;;;;;;1045.50;944.80;;;4.40;99.90;;;;;;4936822;29;20457;-81
2021/11/25 19:00:04;;;;;;;1048.30;942.83;;;4.50;99.90;;;;;;4938381;29;20468;-81
2021/11/25 19:02:31;;;;;;;1048.43;941.30;;;4.40;99.90;;;;;;4938147;29;20488;-82
2021/11/25 19:05:00;;;;;;;1042.90;938.30;;;4.40;99.90;;;;;;4937186;29;20485;-82
2021/11/25 19:07:27;;;;;;;1057.73;950.23;;;4.50;99.90;;;;;;4938640;29;20453;-82
2021/11/25 19:09:54;;;;;;;1053.13;944.57;;;4.50;99.90;;;;;;4936455;29;20461;-83
2021/11/25 19:12:21;;;;;;;1054.57;947.27;;;4.50;99.90;;;;;;4938032;29;20855;-83
2021/11/25 19:14:48;;;;;;;1045.47;936.73;;;4.50;99.90;;;;;;4936332;29;20467;-82
2021/11/25 19:17:15;;;;;;;1067.77;952.17;;;4.60;99.90;;;;;;4936736;29;20461;-82
2021/11/25 19:19:42;;;;;;;1067.83;952.17;;;4.50;99.90;;;;;;4936502;29;20459;-82
2021/11/25 19:22:10;;;;;;;1069.43;955.43;;;4.60;99.90;;;;;;4938059;29;20484;-83
2021/11/25 19:24:37;;;;;;;1064.57;950.37;;;4.60;99.90;;;;;;4940827;29;20472;-82
2021/11/25 19:27:04;;;;;;;1060.70;946.40;;;4.50;99.90;;;;;;4939710;29;20456;-82
2021/11/25 19:29:30;;;;;;;1057.47;948.17;;;4.60;99.90;;;;;;4939963;29;20453;-83
2021/11/25 19:32:01;;;;;;;1051.83;943.43;;;4.70;99.90;;;;;;4939400;29;20472;-82
2021/11/25 19:34:28;;;;;;;1071.40;956.17;;;4.70;99.90;;;;;;4939305;29;20961;-82
2021/11/25 19:36:55;;;;;;;1070.47;954.47;;;4.60;99.90;;;;;;4915824;28;83310;-82
2021/11/25 19:39:23;;;;;;;1069.63;951.20;;;4.60;99.90;;;;;;4919962;29;20468;-82
2021/11/25 19:41:51;;;;;;;1077.57;961.87;;;4.60;99.90;;;;;;4921127;29;20509;-82
2021/11/25 19:44:18;;;;;;;1071.43;953.47;;;4.60;99.90;;;;;;4921871;29;20465;-83
2021/11/25 19:46:46;;;;;;;1062.87;951.77;;;4.60;99.90;;;;;;4922154;29;20457;-82
2021/11/25 19:49:16;;;;;;;1078.07;962.60;;;4.70;99.90;;;;;;4922314;29;20461;-81
2021/11/25 19:51:43;;;;;;;1074.70;955.63;;;4.60;99.90;;;;;;4921645;29;20473;-82
2021/11/25 19:54:12;;;;;;;1059.03;945.67;;;4.60;99.90;;;;;;4920964;29;20461;-82
2021/11/25 19:56:40;;;;;;;1060.40;942.50;;;4.70;99.90;;;;;;4921743;29;20897;-83
2021/11/25 19:59:08;;;;;;;1075.43;939.73;;;4.60;99.90;;;;;;4921018;29;20469;-82
2021/11/25 20:01:35;;;;;;;1058.50;936.30;;;4.70;99.90;;;;;;4920280;29;20482;-82
2021/11/25 20:04:01;;;;;;;1060.53;945.93;;;4.70;99.90;;;;;;4920998;29;20860;-82
2021/11/25 20:06:31;;;;;;;1062.33;949.50;;;4.70;99.90;;;;;;4920925;29;20500;-82
2021/11/25 20:08:57;;;;;;;1061.23;948.97;;;4.70;99.90;;;;;;4920901;29;20459;-83
2021/11/25 20:11:24;;;;;;;1071.57;959.90;;;4.70;99.90;;;;;;4920771;29;20482;-82
2021/11/25 20:13:52;;;;;;;1078.43;964.43;;;4.80;99.90;;;;;;4921304;29;20461;-82
2021/11/25 20:16:19;;;;;;;1074.23;961.50;;;4.70;99.90;;;;;;4921696;29;20842;-82
2021/11/25 20:18:47;;;;;;;1078.07;965.97;;;4.70;99.90;;;;;;4920025;29;20972;-82
2021/11/25 20:21:13;;;;;;;1066.10;953.90;;;4.70;99.90;;;;;;4919627;29;20838;-83
2021/11/25 20:23:41;;;;;;;1069.73;956.73;;;4.70;99.90;;;;;;4919681;29;20508;-82
2021/11/25 20:26:08;;;;;;;1069.97;958.27;;;4.80;99.90;;;;;;4920110;29;20463;-83
2021/11/25 20:28:35;;;;;;;1071.10;962.83;;;4.80;99.90;;;;;;4920807;29;20461;-83
2021/11/25 20:31:03;;;;;;;1062.30;953.90;;;4.80;99.90;;;;;;4920324;29;20480;-83
2021/11/25 20:33:30;;;;;;;1057.60;950.97;;;4.80;99.90;;;;;;4918271;29;20464;-83
2021/11/25 20:35:58;;;;;;;1058.80;952.60;;;4.70;99.90;;;;;;4918751;29;20469;-82
2021/11/25 20:38:25;;;;;;;1051.50;946.70;;;4.70;99.90;;;;;;4918447;29;20460;-82
2021/11/25 20:40:51;;;;;;;1059.40;954.73;;;4.70;99.90;;;;;;4918616;29;20569;-82
2021/11/25 20:43:19;;;;;;;1053.63;951.10;;;4.80;99.90;;;;;;4919014;29;20576;-82
2021/11/25 20:45:46;;;;;;;1046.77;943.40;;;4.70;99.90;;;;;;4918980;29;20572;-83
2021/11/25 20:48:14;;;;;;;1045.53;942.90;;;4.80;99.90;;;;;;4919093;29;20466;-83
2021/11/25 20:50:41;;;;;;;1038.53;935.83;;;4.70;99.90;;;;;;4918636;29;20855;-83
2021/11/25 20:53:08;;;;;;;1035.90;933.93;;;4.70;99.90;;;;;;4918392;29;20969;-83
2021/11/25 20:55:37;;;;;;;1052.43;951.23;;;4.70;99.90;;;;;;4918539;29;20461;-83
2021/11/25 20:58:04;;;;;;;1035.27;934.47;;;4.70;99.90;;;;;;4918341;29;20458;-82
2021/11/25 21:00:31;;;;;;;1050.87;949.97;;;4.70;99.90;;;;;;4917892;29;21012;-83
2021/11/25 21:02:58;;;;;;;1056.60;957.60;;;4.70;99.90;;;;;;4917627;29;20482;-83
2021/11/25 21:05:26;;;;;;;1057.43;958.20;;;4.60;99.90;;;;;;4918279;29;20465;-83
2021/11/25 21:07:53;;;;;;;1056.70;956.80;;;4.60;99.90;;;;;;4918053;29;20844;-83
2021/11/25 21:10:22;;;;;;;1032.27;932.37;;;4.60;99.90;;;;;;4917426;29;20488;-82
2021/11/25 21:12:49;;;;;;;1025.87;927.93;;;4.60;99.90;;;;;;4918999;29;20457;-83
2021/11/25 21:15:16;;;;;;;1023.97;926.30;;;4.60;99.90;;;;;;4918355;29;20835;-83
2021/11/25 21:17:45;;;;;;;1031.60;933.00;;;4.60;99.90;;;;;;4918530;29;20847;-83
2021/11/25 21:20:13;;;;;;;1038.13;937.80;;;4.60;99.90;;;;;;4918281;29;20461;-82
2021/11/25 21:22:43;;;;;;;1030.10;932.40;;;4.60;99.90;;;;;;4918208;29;20477;-83
2021/11/25 21:25:14;;;;;;;1030.40;934.60;;;4.60;99.90;;;;;;4918122;29;20517;-83
2021/11/25 21:27:41;;;;;;;1032.47;934.60;;;4.50;99.90;;;;;;4918520;29;20466;-83
2021/11/25 21:30:11;;;;;;;1021.73;925.83;;;4.50;99.90;;;;;;4917756;29;20497;-82
2021/11/25 21:32:39;;;;;;;1023.40;927.90;;;4.50;99.90;;;;;;4918008;29;20460;-83
2021/11/25 21:35:07;;;;;;;1011.90;918.10;;;4.50;99.90;;;;;;4918127;29;20985;-83
2021/11/25 21:37:36;;;;;;;1007.07;913.30;;;4.50;99.90;;;;;;4918678;29;20465;-82
2021/11/25 21:40:05;;;;;;;1011.70;917.63;;;4.50;99.90;;;;;;4918059;29;20536;-82
2021/11/25 21:42:32;;;;;;;1009.70;917.00;;;4.50;99.90;;;;;;4917909;29;20485;-83
2021/11/25 21:44:58;;;;;;;1001.10;907.70;;;4.50;99.90;;;;;;4917150;29;20462;-83
2021/11/25 21:47:25;;;;;;;1002.57;909.37;;;4.60;99.90;;;;;;4917679;29;20535;-82
2021/11/25 21:49:53;;;;;;;1009.90;917.50;;;4.60;99.90;;;;;;4917208;29;20541;-82
2021/11/25 21:52:21;;;;;;;1006.07;912.27;;;4.50;99.90;;;;;;4917942;29;20569;-83
2021/11/25 21:54:50;;;;;;;1017.13;922.67;;;4.50;99.90;;;;;;4917410;29;20469;-82
2021/11/25 21:57:19;;;;;;;1008.07;914.67;;;4.60;99.90;;;;;;4917816;29;20843;-82
2021/11/25 21:59:47;;;;;;;1013.43;921.00;;;4.60;99.90;;;;;;4917682;29;20468;-82
2021/11/25 22:02:14;;;;;;;1008.07;914.37;;;4.60;99.90;;;;;;4917466;29;20485;-82
2021/11/25 22:04:41;;;;;;;1008.60;915.50;;;4.60;99.90;;;;;;4917767;29;20465;-82
2021/11/25 22:07:08;;;;;;;1033.43;939.27;;;4.60;99.90;;;;;;4917590;29;20473;-83
2021/11/25 22:09:35;;;;;;;1031.03;937.47;;;4.60;99.90;;;;;;4917877;29;20470;-83
2021/11/25 22:12:02;;;;;;;1032.77;938.27;;;4.70;99.90;;;;;;4917035;29;20477;-83
2021/11/25 22:14:30;;;;;;;1017.40;922.80;;;4.70;99.90;;;;;;4917667;29;20462;-83
2021/11/25 22:16:57;;;;;;;1016.47;923.47;;;4.60;99.90;;;;;;4917722;29;20457;-83
2021/11/25 22:19:28;;;;;;;1032.13;937.27;;;4.70;99.90;;;;;;4917854;29;20489;-83
2021/11/25 22:24:57;;;;;;;1023.53;931.80;;;4.70;99.90;;;;;;4918122;29;20965;-83
2021/11/25 22:27:25;;;;;;;1028.07;935.33;;;4.70;99.90;;;;;;4918126;29;20542;-83
2021/11/25 22:29:53;;;;;;;1001.67;910.03;;;4.70;99.90;;;;;;4917687;29;20465;-82
2021/11/25 22:32:21;;;;;;;1002.23;911.80;;;4.70;99.90;;;;;;4917341;29;20474;-83
2021/11/25 22:34:48;;;;;;;1012.17;919.77;;;4.70;99.90;;;;;;4918451;29;20972;-83
2021/11/25 22:37:17;;;;;;;1005.03;915.17;;;4.70;99.90;;;;;;4917535;29;20464;-83
2021/11/25 22:39:44;;;;;;;1009.03;916.93;;;4.80;99.90;;;;;;4917674;29;20470;-82
2021/11/25 22:42:11;;;;;;;999.73;909.03;;;4.80;99.90;;;;;;4917137;29;20488;-82
2021/11/25 22:44:38;;;;;;;996.50;906.60;;;4.70;99.90;;;;;;4917278;29;20472;-83
2021/11/25 22:47:06;;;;;;;996.73;906.27;;;4.70;99.90;;;;;;4917486;29;20466;-83
2021/11/25 22:49:33;;;;;;;1000.20;908.87;;;4.70;99.90;;;;;;4917220;29;20483;-83
2021/11/25 22:51:59;;;;;;;1000.43;909.93;;;4.80;99.90;;;;;;4917091;29;20482;-82
2021/11/25 22:54:26;;;;;;;991.73;903.10;;;4.80;99.90;;;;;;4917325;29;20465;-83
2021/11/25 22:56:53;;;;;;;984.20;896.57;;;4.80;99.90;;;;;;4916870;29;20462;-83
2021/11/25 22:59:20;;;;;;;989.27;898.90;;;4.80;99.90;;;;;;4916924;29;20468;-82
2021/11/25 23:01:46;;;;;;;981.10;892.10;;;4.80;99.90;;;;;;4916429;29;20485;-82
2021/11/25 23:04:15;;;;;;;983.10;894.90;;;4.80;99.90;;;;;;4916975;29;20493;-83
2021/11/25 23:06:42;;;;;;;987.60;900.53;;;4.90;99.90;;;;;;4917358;29;20458;-83
2021/11/25 23:09:09;;;;;;;997.27;911.60;;;4.80;99.90;;;;;;4917105;29;20458;-82
2021/11/25 23:11:35;;;;;;;984.83;899.90;;;4.80;99.90;;;;;;4917027;29;20482;-82
2021/11/25 23:14:02;;;;;;;984.53;899.47;;;4.80;99.90;;;;;;4917406;29;20453;-82
2021/11/25 23:16:29;;;;;;;977.70;894.03;;;4.80;99.90;;;;;;4917648;29;20543;-83
2021/11/25 23:18:56;;;;;;;976.43;893.50;;;4.80;99.90;;;;;;4917935;29;20458;-83
2021/11/25 23:21:24;;;;;;;964.53;882.37;;;4.70;99.90;;;;;;4917161;29;20484;-83
2021/11/25 23:23:51;;;;;;;960.90;879.67;;;4.70;99.90;;;;;;4917391;29;20496;-83
2021/11/25 23:26:18;;;;;;;961.37;880.93;;;4.70;99.90;;;;;;4917329;29;20468;-83
2021/11/25 23:28:44;;;;;;;953.70;873.60;;;4.70;99.90;;;;;;4917388;29;20458;-83
2021/11/25 23:31:11;;;;;;;948.73;869.13;;;4.70;99.90;;;;;;4916421;29;20474;-83